Time;durP1;ratioP1;P1;durP2;ratioP2;P2;SDS_P1;SDS_P2;PMS_P1;PMS_P2;Temp;Humidity;BMP_temperature;BMP_pressure;BME280_temperature;BME280_humidity;BME280_pressure;Samples;Min_cycle;Max_cycle;Signal;HPM_P1;HPM_P2
2023/06/17 00:02:40;;;;;;;7.13;3.20;;;;;;;17.93;82.73;101251.88;6248905;28;20045;-71
2023/06/17 00:05:42;;;;;;;8.98;3.53;;;;;;;17.82;83.30;101254.50;6249414;28;20130;-71
2023/06/17 00:08:43;;;;;;;7.45;3.17;;;;;;;17.84;83.36;101262.34;6249731;28;20046;-71
2023/06/17 00:11:47;;;;;;;5.82;3.55;;;;;;;17.81;83.54;101263.47;6245772;28;20060;-71
2023/06/17 00:14:50;;;;;;;4.60;2.95;;;;;;;17.82;82.53;101254.50;6249378;28;20071;-71
2023/06/17 00:17:52;;;;;;;6.72;3.35;;;;;;;17.79;82.85;101248.56;6249475;28;20103;-71
2023/06/17 00:20:54;;;;;;;5.68;3.28;;;;;;;17.70;83.12;101247.41;6248893;28;20453;-71
2023/06/17 00:23:55;;;;;;;6.45;3.85;;;;;;;17.64;81.48;101243.41;6251569;28;20127;-71
2023/06/17 00:26:58;;;;;;;6.78;3.20;;;;;;;17.62;82.53;101247.13;6253814;28;20049;-71
2023/06/17 00:30:00;;;;;;;5.32;3.40;;;;;;;17.62;83.05;101244.47;6240867;28;20359;-71
2023/06/17 00:33:01;;;;;;;5.50;3.88;;;;;;;17.64;83.92;101250.56;6247183;28;20057;-71
2023/06/17 00:36:03;;;;;;;6.22;3.72;;;;;;;17.61;85.03;101254.28;6253713;28;20054;-71
2023/06/17 00:39:05;;;;;;;5.45;3.88;;;;;;;17.63;84.71;101251.53;6253379;28;20068;-71
2023/06/17 00:42:08;;;;;;;4.97;3.22;;;;;;;17.56;84.24;101247.63;6253126;28;20049;-71
2023/06/17 00:45:10;;;;;;;4.97;3.90;;;;;;;17.45;84.88;101238.63;6253159;28;20556;-73
2023/06/17 00:48:11;;;;;;;4.45;3.35;;;;;;;17.40;85.69;101235.47;6253274;28;20352;-73
2023/06/17 00:51:13;;;;;;;7.57;4.15;;;;;;;17.33;85.19;101231.56;6252685;28;20053;-72
2023/06/17 00:54:15;;;;;;;7.13;3.28;;;;;;;17.30;85.59;101226.47;6253169;28;20053;-73
2023/06/17 00:57:18;;;;;;;7.60;3.50;;;;;;;17.27;84.80;101232.03;6253182;28;20053;-73
2023/06/17 01:00:20;;;;;;;9.10;3.42;;;;;;;17.22;85.49;101242.16;6252260;28;20430;-73
2023/06/17 01:03:22;;;;;;;4.82;2.75;;;;;;;17.22;86.11;101248.31;6245018;28;20060;-72
2023/06/17 01:06:33;;;;;;;10.65;4.07;;;;;;;17.14;86.36;101244.50;6252870;28;20042;-73
2023/06/17 01:09:39;;;;;;;7.70;3.63;;;;;;;17.12;86.34;101246.41;6252781;28;20132;-72
2023/06/17 01:12:44;;;;;;;5.13;3.17;;;;;;;17.10;86.16;101248.34;6251947;28;20053;-73
2023/06/17 01:15:46;;;;;;;9.73;4.38;;;;;;;17.07;86.34;101245.91;6252759;28;20061;-73
2023/06/17 01:18:48;;;;;;;4.78;2.88;;;;;;;17.07;86.07;101237.94;6252394;28;20080;-73
2023/06/17 01:21:51;;;;;;;7.97;3.42;;;;;;;17.01;86.86;101235.75;6252076;28;20045;-73
2023/06/17 01:24:56;;;;;;;5.75;4.00;;;;;;;16.95;87.80;101237.03;6252332;28;20051;-73
2023/06/17 01:28:00;;;;;;;8.82;4.65;;;;;;;16.98;86.19;101234.97;6252381;28;20366;-73
2023/06/17 01:31:01;;;;;;;6.85;4.03;;;;;;;16.98;86.97;101226.19;6251516;28;20107;-73
2023/06/17 01:34:04;;;;;;;4.05;3.20;;;;;;;16.97;87.04;101229.78;6248045;28;20049;-73
2023/06/17 01:37:10;;;;;;;4.85;3.65;;;;;;;16.85;87.70;101222.72;6252074;28;20081;-73
2023/06/17 01:40:15;;;;;;;6.97;4.35;;;;;;;16.79;87.89;101217.84;6251569;28;20048;-73
2023/06/17 01:43:17;;;;;;;8.52;4.28;;;;;;;16.68;90.19;101214.13;6251951;28;20053;-73
2023/06/17 01:46:19;;;;;;;5.82;3.53;;;;;;;16.73;89.39;101219.16;6252190;28;20056;-73
2023/06/17 01:49:21;;;;;;;6.00;3.33;;;;;;;16.67;91.20;101228.38;6245221;28;20050;-73
2023/06/17 01:52:22;;;;;;;12.68;4.65;;;;;;;16.54;91.64;101216.94;6249998;28;20041;-73
2023/06/17 01:55:25;;;;;;;5.82;4.03;;;;;;;16.49;92.86;101216.41;6251698;28;20136;-72
2023/06/17 01:58:26;;;;;;;4.60;3.22;;;;;;;16.53;92.95;101209.06;6251745;28;20057;-72
2023/06/17 02:01:28;;;;;;;7.95;3.85;;;;;;;16.48;92.99;101215.53;6250907;28;20053;-73
2023/06/17 02:04:29;;;;;;;8.88;4.80;;;;;;;16.48;93.50;101212.03;6243924;28;20346;-73
2023/06/17 02:07:30;;;;;;;9.38;3.85;;;;;;;16.42;93.54;101218.63;6243753;28;20354;-72
2023/06/17 02:10:33;;;;;;;5.90;3.67;;;;;;;16.35;94.37;101216.50;6250770;28;20434;-73
2023/06/17 02:13:35;;;;;;;6.97;4.40;;;;;;;16.32;94.58;101217.59;6251537;28;20052;-73
2023/06/17 02:16:39;;;;;;;9.63;5.40;;;;;;;16.27;96.30;101219.72;6251125;28;20049;-72
2023/06/17 02:19:41;;;;;;;8.13;4.93;;;;;;;16.24;96.66;101215.44;6251412;28;20139;-72
2023/06/17 02:22:42;;;;;;;9.10;4.70;;;;;;;16.24;97.48;101222.56;6250582;28;20049;-72
2023/06/17 02:25:45;;;;;;;9.13;4.45;;;;;;;16.23;98.75;101215.56;6250914;28;20350;-73
2023/06/17 02:28:46;;;;;;;8.88;4.53;;;;;;;16.20;98.06;101221.94;6250986;28;20349;-72
2023/06/17 02:31:48;;;;;;;7.63;4.65;;;;;;;16.17;98.90;101213.34;6250146;28;20052;-73
2023/06/17 02:34:49;;;;;;;12.05;5.47;;;;;;;16.11;100.00;101213.75;6247789;28;20056;-72
2023/06/17 02:37:50;;;;;;;10.48;4.63;;;;;;;16.01;100.00;101218.84;6250775;28;20056;-73
2023/06/17 02:40:53;;;;;;;7.22;4.63;;;;;;;16.06;100.00;101215.88;6250002;28;20041;-73
2023/06/17 02:43:54;;;;;;;7.28;4.50;;;;;;;16.05;100.00;101216.84;6250451;28;20339;-72
2023/06/17 02:46:56;;;;;;;9.02;5.30;;;;;;;16.00;100.00;101225.13;6250383;28;20049;-73
2023/06/17 02:49:57;;;;;;;6.90;4.55;;;;;;;16.05;100.00;101212.38;6249930;28;20045;-72
2023/06/17 02:52:58;;;;;;;5.55;3.70;;;;;;;16.06;100.00;101215.88;6239369;28;20078;-73
2023/06/17 02:56:01;;;;;;;10.27;5.00;;;;;;;16.11;100.00;101211.09;6234075;28;20061;-72
2023/06/17 02:59:02;;;;;;;9.38;5.57;;;;;;;15.95;100.00;101216.63;6238044;28;20056;-72
2023/06/17 03:02:04;;;;;;;15.02;5.85;;;;;;;15.90;100.00;101218.75;6235421;28;20069;-73
2023/06/17 03:05:07;;;;;;;10.48;5.95;;;;;;;15.97;100.00;101220.00;6238897;28;20057;-73
2023/06/17 03:08:09;;;;;;;17.30;7.32;;;;;;;15.96;100.00;101213.88;6250172;28;20473;-72
2023/06/17 03:11:11;;;;;;;15.90;8.18;;;;;;;15.93;100.00;101214.06;6249611;28;20052;-72
2023/06/17 03:14:19;;;;;;;16.23;7.75;;;;;;;15.81;100.00;101219.38;6250037;28;20056;-72
2023/06/17 03:17:21;;;;;;;14.50;7.38;;;;;;;15.76;100.00;101219.69;6250130;28;20438;-72
2023/06/17 03:20:28;;;;;;;17.98;9.65;;;;;;;15.73;100.00;101219.88;6249766;28;20056;-72
2023/06/17 03:23:30;;;;;;;22.73;9.45;;;;;;;15.68;100.00;101217.53;6250102;28;20107;-72
2023/06/17 03:26:32;;;;;;;17.40;9.57;;;;;;;15.71;100.00;101222.66;6249934;28;20049;-72
2023/06/17 03:29:35;;;;;;;24.30;9.60;;;;;;;15.67;100.00;101215.00;6234578;28;20079;-72
2023/06/17 03:32:36;;;;;;;22.48;10.52;;;;;;;15.58;100.00;101223.50;6244669;28;20049;-73
2023/06/17 03:35:37;;;;;;;22.65;8.80;;;;;;;15.61;100.00;101218.84;6242586;28;20327;-72
2023/06/17 03:38:39;;;;;;;17.17;8.52;;;;;;;15.64;100.00;101215.19;6249790;28;20061;-72
2023/06/17 03:41:42;;;;;;;23.95;10.43;;;;;;;15.52;100.00;101218.63;6249154;28;20080;-72
2023/06/17 03:44:43;;;;;;;21.98;10.23;;;;;;;15.42;100.00;101221.88;6249519;28;20072;-72
2023/06/17 03:47:44;;;;;;;20.83;9.25;;;;;;;15.42;100.00;101221.88;6250012;28;20053;-72
2023/06/17 03:50:46;;;;;;;21.75;9.52;;;;;;;15.51;100.00;101225.72;6249151;28;20052;-73
2023/06/17 03:53:47;;;;;;;30.73;10.80;;;;;;;15.40;100.00;101222.97;6238618;28;20050;-73
2023/06/17 03:56:50;;;;;;;20.45;9.00;;;;;;;15.46;100.00;101223.38;6227237;28;20049;-72
2023/06/17 03:59:51;;;;;;;20.83;9.25;;;;;;;15.41;100.00;101225.50;6228382;28;20056;-72
2023/06/17 04:02:53;;;;;;;20.48;9.07;;;;;;;15.46;100.00;101231.34;6220559;28;20941;-72
2023/06/17 04:05:54;;;;;;;26.83;9.63;;;;;;;15.42;100.00;101229.84;6235691;28;20491;-72
2023/06/17 04:08:56;;;;;;;20.95;8.40;;;;;;;15.44;100.00;101221.78;6222425;28;20045;-72
2023/06/17 04:11:58;;;;;;;21.65;9.85;;;;;;;15.33;100.00;101219.84;6228457;28;20046;-73
2023/06/17 04:15:00;;;;;;;24.90;10.18;;;;;;;15.33;100.00;101216.34;6240448;28;20046;-72
2023/06/17 04:18:02;;;;;;;25.02;10.05;;;;;;;15.34;100.00;101220.69;6238369;28;20520;-72
2023/06/17 04:21:05;;;;;;;17.85;8.75;;;;;;;15.30;100.00;101222.69;6242398;28;20052;-72
2023/06/17 04:24:06;;;;;;;20.98;10.20;;;;;;;15.40;100.00;101221.16;6229760;28;20049;-72
2023/06/17 04:27:10;;;;;;;19.58;7.90;;;;;;;15.42;100.00;101226.34;6248955;28;20045;-73
2023/06/17 04:30:15;;;;;;;16.10;8.27;;;;;;;15.46;100.00;101231.34;6248998;28;20077;-73
2023/06/17 04:33:16;;;;;;;22.25;10.02;;;;;;;15.55;100.00;101226.38;6241927;28;20049;-73
2023/06/17 04:36:18;;;;;;;20.75;9.63;;;;;;;15.58;100.00;101220.84;6230651;28;20442;-73
2023/06/17 04:39:19;;;;;;;23.92;9.88;;;;;;;15.66;100.00;101224.72;6236763;28;20187;-72
2023/06/17 04:42:24;;;;;;;17.13;8.10;;;;;;;15.63;100.00;101226.72;6234704;28;20045;-73
2023/06/17 04:45:27;;;;;;;17.48;8.55;;;;;;;15.62;100.00;101217.06;6242815;28;20053;-72
2023/06/17 04:48:29;;;;;;;20.30;9.30;;;;;;;15.63;100.00;101216.97;6230571;28;20046;-72
2023/06/17 04:51:30;;;;;;;22.85;10.23;;;;;;;15.60;100.00;101217.16;6229190;28;20124;-72
2023/06/17 04:54:31;;;;;;;21.10;10.10;;;;;;;15.57;100.00;101217.38;6229939;28;20061;-72
2023/06/17 04:57:34;;;;;;;28.15;10.50;;;;;;;15.54;100.00;101219.41;6236501;28;20054;-72
2023/06/17 05:00:35;;;;;;;23.05;9.55;;;;;;;15.54;100.00;101214.94;6227936;28;20061;-73
2023/06/17 05:03:37;;;;;;;21.13;10.35;;;;;;;15.54;100.00;101219.41;6228415;28;20042;-73
2023/06/17 05:06:38;;;;;;;16.63;8.95;;;;;;;15.57;100.00;101211.22;6228438;28;20042;-73
2023/06/17 05:09:39;;;;;;;24.65;10.98;;;;;;;15.59;100.00;101219.94;6228368;28;20046;-74
2023/06/17 05:12:42;;;;;;;20.20;9.48;;;;;;;15.54;100.00;101219.41;6227681;28;20042;-72
2023/06/17 05:15:44;;;;;;;23.30;10.30;;;;;;;15.55;100.00;101219.28;6228499;28;20427;-73
2023/06/17 05:18:45;;;;;;;20.15;9.93;;;;;;;15.60;100.00;101219.81;6228279;28;20395;-72
2023/06/17 05:21:47;;;;;;;17.33;8.38;;;;;;;15.64;100.00;101217.84;6227558;28;20351;-72
2023/06/17 05:24:48;;;;;;;20.40;10.35;;;;;;;15.64;100.00;101224.00;6228124;28;20045;-73
2023/06/17 05:27:51;;;;;;;19.88;9.55;;;;;;;15.70;100.00;101230.69;6227641;28;20053;-72
2023/06/17 05:30:52;;;;;;;19.10;8.30;;;;;;;15.65;100.00;101233.63;6227439;28;20049;-73
2023/06/17 05:33:54;;;;;;;15.10;7.57;;;;;;;15.66;100.00;101234.47;6227914;28;20048;-73
2023/06/17 05:36:55;;;;;;;21.60;10.23;;;;;;;15.69;100.00;101239.59;6228001;28;20042;-73
2023/06/17 05:39:56;;;;;;;18.98;8.80;;;;;;;15.81;100.00;101241.44;6243666;28;20056;-73
2023/06/17 05:42:59;;;;;;;19.25;9.25;;;;;;;15.89;100.00;101243.53;6252128;28;20060;-72
2023/06/17 05:46:01;;;;;;;23.23;9.95;;;;;;;15.83;100.00;101236.00;6252119;28;20053;-72
2023/06/17 05:49:02;;;;;;;16.38;8.27;;;;;;;15.79;100.00;101242.47;6245125;28;20052;-73
2023/06/17 05:52:04;;;;;;;17.35;8.48;;;;;;;15.81;100.00;101244.06;6251268;28;20068;-72
2023/06/17 05:55:06;;;;;;;15.85;8.07;;;;;;;15.79;100.00;101237.16;6251937;28;20050;-72
2023/06/17 05:58:09;;;;;;;17.40;8.02;;;;;;;15.74;100.00;101237.47;6251754;28;20045;-73
2023/06/17 06:01:11;;;;;;;15.88;8.15;;;;;;;15.77;100.00;101237.28;6251150;28;20124;-73
2023/06/17 06:04:12;;;;;;;18.83;8.82;;;;;;;15.79;100.00;101245.13;6236990;28;20430;-73
2023/06/17 06:07:14;;;;;;;18.58;9.93;;;;;;;15.77;100.00;101242.56;6239392;28;20439;-72
2023/06/17 06:10:16;;;;;;;27.50;11.20;;;;;;;15.61;100.00;101240.06;6242940;28;20049;-73
2023/06/17 06:13:19;;;;;;;17.10;9.23;;;;;;;15.72;100.00;101239.41;6251117;28;20057;-72
2023/06/17 06:16:20;;;;;;;16.73;9.15;;;;;;;15.74;100.00;101253.38;6251459;28;20453;-72
2023/06/17 06:19:21;;;;;;;17.50;9.50;;;;;;;15.78;100.00;101254.03;6241394;28;20056;-75
2023/06/17 06:22:23;;;;;;;16.75;8.48;;;;;;;15.81;100.00;101254.69;6247844;28;20128;-72
2023/06/17 06:25:24;;;;;;;12.40;7.25;;;;;;;15.88;100.00;101257.75;6241320;28;20056;-73
2023/06/17 06:28:27;;;;;;;18.95;8.30;;;;;;;15.97;100.00;101259.78;6251381;28;20053;-72
2023/06/17 06:31:29;;;;;;;17.52;9.00;;;;;;;15.96;100.00;101258.09;6249475;28;20072;-72
2023/06/17 06:34:30;;;;;;;16.20;8.60;;;;;;;15.90;100.00;101258.50;6243184;28;20366;-73
2023/06/17 06:37:32;;;;;;;23.00;8.00;;;;;;;15.96;100.00;101258.09;6250912;28;20057;-73
2023/06/17 06:40:33;;;;;;;16.65;8.52;;;;;;;16.02;100.00;101259.47;6250338;28;20048;-73
2023/06/17 06:43:36;;;;;;;18.08;8.77;;;;;;;16.07;100.00;101262.66;6250991;28;20457;-73
2023/06/17 06:46:37;;;;;;;15.68;8.57;;;;;;;16.07;100.00;101263.50;6250658;28;20060;-73
2023/06/17 06:49:38;;;;;;;16.00;7.95;;;;;;;16.10;100.00;101271.25;6250869;28;20045;-72
2023/06/17 06:52:40;;;;;;;18.95;9.05;;;;;;;16.03;100.00;101271.75;6249889;28;20041;-73
2023/06/17 06:55:42;;;;;;;18.75;9.65;;;;;;;16.01;100.00;101266.56;6250436;28;20108;-72
2023/06/17 06:58:46;;;;;;;19.77;9.02;;;;;;;16.08;100.00;101273.16;6244162;28;20049;-72
2023/06/17 07:01:48;;;;;;;14.48;7.25;;;;;;;16.14;100.00;101280.69;6239329;28;20052;-72
2023/06/17 07:04:50;;;;;;;16.45;8.32;;;;;;;16.15;100.00;101268.28;6230835;28;20056;-72
2023/06/17 07:07:51;;;;;;;14.45;7.85;;;;;;;16.23;100.00;101271.25;6225572;28;20041;-72
2023/06/17 07:10:52;;;;;;;17.17;9.25;;;;;;;16.27;100.00;101267.44;6225057;28;20045;-72
2023/06/17 07:13:55;;;;;;;12.10;7.18;;;;;;;16.26;100.00;101275.50;6225540;28;20057;-73
2023/06/17 07:16:56;;;;;;;15.05;8.18;;;;;;;16.21;100.00;101275.81;6226324;28;20072;-73
2023/06/17 07:19:59;;;;;;;21.52;9.52;;;;;;;16.14;100.00;101279.84;6229355;28;20457;-72
2023/06/17 07:23:00;;;;;;;24.02;9.63;;;;;;;16.17;100.00;101274.34;6227236;28;20050;-73
2023/06/17 07:26:02;;;;;;;17.70;8.38;;;;;;;16.18;100.00;101276.88;6227077;28;20045;-72
2023/06/17 07:29:04;;;;;;;15.52;8.65;;;;;;;16.26;100.00;101280.78;6227308;28;20055;-72
2023/06/17 07:32:06;;;;;;;15.50;7.32;;;;;;;16.33;100.00;101287.41;6227402;28;20053;-72
2023/06/17 07:35:08;;;;;;;12.65;7.47;;;;;;;16.38;100.00;101280.81;6232325;28;20058;-72
2023/06/17 07:38:09;;;;;;;17.60;8.68;;;;;;;16.42;100.00;101284.94;6232212;28;20049;-72
2023/06/17 07:41:11;;;;;;;14.05;7.65;;;;;;;16.44;100.00;101293.66;6231404;28;20037;-72
2023/06/17 07:44:13;;;;;;;16.90;9.10;;;;;;;16.42;100.00;101295.56;6236831;28;20045;-72
2023/06/17 07:47:15;;;;;;;17.90;7.85;;;;;;;16.39;100.00;101292.25;6236607;28;20052;-72
2023/06/17 07:50:16;;;;;;;14.18;7.90;;;;;;;16.39;100.00;101294.91;6238698;28;20365;-72
2023/06/17 07:53:18;;;;;;;15.80;8.00;;;;;;;16.38;100.00;101299.38;6254603;28;20057;-73
2023/06/17 07:56:20;;;;;;;13.85;7.20;;;;;;;16.43;100.00;101286.63;6254815;28;20049;-72
2023/06/17 07:59:22;;;;;;;16.70;7.55;;;;;;;16.45;100.00;101283.91;6254574;28;20468;-73
2023/06/17 08:02:24;;;;;;;15.75;7.95;;;;;;;16.45;100.00;101289.22;6241934;28;20050;-72
2023/06/17 08:05:25;;;;;;;14.57;8.75;;;;;;;16.49;100.00;101285.38;6247226;28;20056;-72
2023/06/17 08:08:27;;;;;;;20.40;10.20;;;;;;;16.47;100.00;101289.94;6251324;28;20053;-73
2023/06/17 08:11:28;;;;;;;22.20;10.15;;;;;;;16.57;100.00;101295.44;6253220;28;20049;-72
2023/06/17 08:14:31;;;;;;;20.38;9.80;;;;;;;16.62;100.00;101299.50;6254384;28;20434;-72
2023/06/17 08:17:32;;;;;;;21.33;12.05;;;;;;;16.56;100.00;101289.28;6252496;28;20435;-72
2023/06/17 08:20:36;;;;;;;24.55;12.55;;;;;;;16.48;100.00;101283.66;6237532;28;20045;-72
2023/06/17 08:23:38;;;;;;;25.88;12.30;;;;;;;16.48;100.00;101288.97;6247374;28;20053;-73
2023/06/17 08:26:39;;;;;;;27.42;12.48;;;;;;;16.53;100.00;101294.81;6253763;28;20449;-72
2023/06/17 08:29:42;;;;;;;25.45;12.50;;;;;;;16.59;100.00;101296.22;6252887;28;20050;-72
2023/06/17 08:32:43;;;;;;;28.15;12.48;;;;;;;16.62;100.00;101291.53;6239609;28;20393;-73
2023/06/17 08:35:45;;;;;;;33.17;13.02;;;;;;;16.79;100.00;101300.13;6252915;28;20045;-72
2023/06/17 08:38:46;;;;;;;27.38;14.85;;;;;;;16.71;100.00;101301.50;6241068;28;20046;-73
2023/06/17 08:41:48;;;;;;;25.20;12.52;;;;;;;16.76;100.00;101295.91;6231819;28;20062;-73
2023/06/17 08:44:52;;;;;;;29.17;12.50;;;;;;;16.80;100.00;101299.16;6232138;28;20053;-73
2023/06/17 08:47:53;;;;;;;24.27;12.38;;;;;;;16.82;100.00;101299.94;6226604;28;20045;-72
2023/06/17 08:50:55;;;;;;;30.33;14.13;;;;;;;16.79;100.00;101300.13;6222067;28;20057;-72
2023/06/17 08:53:57;;;;;;;29.50;14.32;;;;;;;16.79;100.00;101297.47;6218882;28;20056;-72
2023/06/17 08:56:59;;;;;;;34.22;14.40;;;;;;;16.88;100.00;101296.84;6210115;28;20192;-73
2023/06/17 09:00:03;;;;;;;31.60;15.30;;;;;;;16.95;100.00;101295.44;6210519;28;20050;-73
2023/06/17 09:03:08;;;;;;;33.38;13.95;;;;;;;16.95;100.00;101296.28;6213394;28;20339;-73
2023/06/17 09:06:17;;;;;;;30.40;14.70;;;;;;;17.04;100.00;101294.78;6206643;28;20128;-72
2023/06/17 09:09:19;;;;;;;31.90;15.27;;;;;;;17.08;100.00;101304.25;6207857;28;20188;-73
2023/06/17 09:12:23;;;;;;;32.00;15.40;;;;;;;17.20;100.00;101300.69;6206716;28;20042;-73
2023/06/17 09:15:26;;;;;;;27.88;13.23;;;;;;;17.25;100.00;101300.34;6208670;28;20050;-72
2023/06/17 09:18:27;;;;;;;35.47;14.38;;;;;;;17.31;100.00;101294.59;6215301;28;20054;-72
2023/06/17 09:21:29;;;;;;;30.48;13.77;;;;;;;17.41;100.00;101298.28;6222016;28;20370;-72
2023/06/17 09:24:31;;;;;;;27.30;12.68;;;;;;;17.52;100.00;101297.47;6213567;28;20470;-72
2023/06/17 09:27:32;;;;;;;26.35;13.00;;;;;;;17.53;100.00;101291.19;6203523;28;20136;-74
2023/06/17 09:30:36;;;;;;;28.08;12.52;;;;;;;17.55;100.00;101291.09;6201655;28;20046;-70
2023/06/17 09:33:38;;;;;;;23.48;12.65;;;;;;;17.51;100.00;101301.09;6210037;28;20049;-73
2023/06/17 09:36:39;;;;;;;23.10;10.32;;;;;;;17.59;100.00;101301.41;6221374;28;20562;-72
2023/06/17 09:39:45;;;;;;;20.95;10.75;;;;;;;17.71;100.00;101291.63;6227622;28;20467;-73
2023/06/17 09:42:47;;;;;;;22.77;10.73;;;;;;;17.81;100.00;101294.53;6226946;28;20046;-73
2023/06/17 09:45:55;;;;;;;23.77;11.63;;;;;;;17.96;100.00;101290.69;6227916;28;20054;-73
2023/06/17 09:48:58;;;;;;;19.15;9.60;;;;;;;18.09;100.00;101296.78;6227894;28;20073;-72
2023/06/17 09:52:02;;;;;;;18.80;10.48;;;;;;;18.08;100.00;101295.09;6224621;28;20133;-72
2023/06/17 09:55:05;;;;;;;24.95;9.88;;;;;;;18.04;100.00;101295.44;6209608;28;20475;-73
2023/06/17 09:58:08;;;;;;;19.13;8.95;;;;;;;18.13;100.00;101292.94;6203958;28;20488;-72
2023/06/17 10:01:11;;;;;;;18.30;10.00;;;;;;;18.12;100.00;101295.69;6212610;28;20046;-72
2023/06/17 10:04:13;;;;;;;22.83;9.63;;;;;;;18.11;100.00;101294.84;6226061;28;20054;-72
2023/06/17 10:07:15;;;;;;;17.52;9.18;;;;;;;18.28;100.00;101295.38;6222036;28;20050;-72
2023/06/17 10:10:18;;;;;;;17.13;8.98;;;;;;;18.40;100.00;101287.28;6223377;28;20125;-79
2023/06/17 10:13:22;;;;;;;16.33;9.07;;;;;;;18.54;100.00;101288.03;6227100;28;20343;-78
2023/06/17 10:16:28;;;;;;;17.27;9.13;;;;;;;18.60;100.00;101283.06;6227545;28;20061;-74
2023/06/17 10:19:33;;;;;;;15.93;7.75;;;;;;;18.69;100.00;101281.53;6227429;28;20053;-73
2023/06/17 10:22:38;;;;;;;18.42;9.55;;;;;;;18.72;100.00;101281.28;6226098;28;20045;-73
2023/06/17 10:25:40;;;;;;;15.13;8.90;;;;;;;18.73;100.00;101278.50;6227120;28;20065;-73
2023/06/17 10:28:45;;;;;;;18.50;9.02;;;;;;;18.89;100.00;101271.94;6227029;28;20054;-73
2023/06/17 10:31:48;;;;;;;18.63;9.55;;;;;;;19.06;100.00;101267.94;6221210;28;20512;-73
2023/06/17 10:35:10;;;;;;;13.70;8.05;;;;;;;18.98;100.00;101265.88;6226646;28;20484;-73
2023/06/17 10:38:30;;;;;;;14.90;7.85;;;;;;;18.98;100.00;101268.53;6223620;28;20324;-73
2023/06/17 10:41:55;;;;;;;16.95;8.82;;;;;;;19.05;100.00;101272.41;6225674;28;20457;-73
2023/06/17 10:44:57;;;;;;;22.80;10.55;;;;;;;19.07;100.00;101262.47;6225936;28;20052;-74
2023/06/17 10:48:15;;;;;;;17.40;8.07;;;;;;;19.10;100.00;101259.56;6226465;28;20354;-73
2023/06/17 10:51:18;;;;;;;16.15;8.30;;;;;;;19.06;100.00;101263.44;6225871;28;20053;-73
2023/06/17 10:54:27;;;;;;;16.52;9.02;;;;;;;19.01;100.00;101249.66;6226237;28;20053;-73
2023/06/17 10:57:30;;;;;;;14.57;7.78;;;;;;;19.10;100.00;101243.59;6226040;28;20461;-73
2023/06/17 11:00:31;;;;;;;19.95;9.35;;;;;;;19.27;100.00;101243.06;6224688;28;20050;-73
2023/06/17 11:03:35;;;;;;;14.45;8.55;;;;;;;19.45;100.00;101251.34;6226357;28;20053;-72
2023/06/17 11:06:36;;;;;;;11.93;6.82;;;;;;;19.52;100.00;101238.34;6225892;28;20450;-73
2023/06/17 11:09:38;;;;;;;18.50;7.85;;;;;;;19.59;100.00;101242.22;6226087;28;20112;-74
2023/06/17 11:12:41;;;;;;;11.63;6.55;;;;;;;19.66;100.00;101235.41;6225520;28;20050;-73
2023/06/17 11:15:43;;;;;;;12.02;6.82;;;;;;;19.80;100.00;101236.06;6226349;28;20449;-73
2023/06/17 11:18:46;;;;;;;10.15;6.82;;;;;;;20.14;100.00;101229.56;6225927;28;20046;-73
2023/06/17 11:21:50;;;;;;;14.27;7.30;;;;;;;20.20;100.00;101233.53;6225303;28;20446;-73
2023/06/17 11:24:52;;;;;;;13.10;7.88;;;;;;;20.27;100.00;101232.88;6226022;28;20431;-73
2023/06/17 11:27:53;;;;;;;14.52;7.55;;;;;;;20.43;100.00;101240.38;6225924;28;20136;-73
2023/06/17 11:30:55;;;;;;;14.60;7.18;;;;;;;20.47;100.00;101231.16;6225165;28;20046;-73
2023/06/17 11:33:59;;;;;;;14.77;6.78;;;;;;;20.53;100.00;101237.81;6225621;28;20045;-73
2023/06/17 11:37:02;;;;;;;14.95;6.18;;;;;;;20.61;100.00;101232.63;6225853;28;20340;-75
2023/06/17 11:40:05;;;;;;;9.18;5.75;;;;;;;20.87;100.00;101233.00;6225017;28;20346;-74
2023/06/17 11:43:07;;;;;;;14.82;6.13;;;;;;;20.89;100.00;101227.50;6225693;28;20054;-74
2023/06/17 11:46:08;;;;;;;12.80;6.65;;;;;;;20.99;100.00;101226.56;6225610;28;20131;-74
2023/06/17 11:49:11;;;;;;;13.55;6.95;;;;;;;21.19;100.00;101230.09;6225877;28;20076;-74
2023/06/17 11:52:13;;;;;;;10.25;6.45;;;;;;;21.37;100.00;101224.09;6225007;28;20046;-75
2023/06/17 11:55:15;;;;;;;10.00;6.07;;;;;;;21.66;99.13;101216.91;6225744;28;20065;-74
2023/06/17 11:58:17;;;;;;;11.10;6.00;;;;;;;21.93;100.00;101224.19;6225662;28;20139;-73
2023/06/17 12:01:25;;;;;;;10.60;6.57;;;;;;;22.23;96.20;101219.66;6217890;28;20053;-74
2023/06/17 12:04:29;;;;;;;13.25;6.63;;;;;;;22.50;93.61;101213.47;6224047;28;20046;-73
2023/06/17 12:07:39;;;;;;;10.77;5.78;;;;;;;22.65;94.62;101203.09;6225322;28;20094;-73
2023/06/17 12:10:40;;;;;;;11.32;6.25;;;;;;;22.76;95.17;101202.91;6224930;28;20061;-74
2023/06/17 12:13:42;;;;;;;16.42;6.80;;;;;;;22.87;89.77;101197.34;6225168;28;20049;-74
2023/06/17 12:16:44;;;;;;;11.52;6.22;;;;;;;23.27;88.86;101198.78;6225445;28;20057;-75
2023/06/17 12:19:48;;;;;;;10.15;5.75;;;;;;;23.47;86.67;101200.28;6226900;28;20399;-74
2023/06/17 12:22:51;;;;;;;9.77;6.05;;;;;;;23.40;85.27;101201.94;6228985;28;20442;-74
2023/06/17 12:25:52;;;;;;;10.15;5.68;;;;;;;23.46;86.81;101198.63;6229846;28;20264;-74
2023/06/17 12:28:54;;;;;;;10.25;5.40;;;;;;;23.46;84.59;101195.09;6229692;28;20323;-74
2023/06/17 12:31:55;;;;;;;7.57;4.75;;;;;;;23.58;85.66;101190.34;6228685;28;20165;-74
2023/06/17 12:34:58;;;;;;;10.48;5.82;;;;;;;23.76;84.29;101191.19;6229657;28;20054;-74
2023/06/17 12:38:00;;;;;;;11.32;5.88;;;;;;;23.79;82.84;101186.31;6229473;28;20050;-74
2023/06/17 12:41:02;;;;;;;8.20;5.40;;;;;;;23.90;82.18;101174.50;6228685;28;20357;-75
2023/06/17 12:44:03;;;;;;;9.82;5.57;;;;;;;24.03;79.29;101176.75;6228767;28;20498;-75
2023/06/17 12:47:05;;;;;;;9.45;5.55;;;;;;;24.17;79.74;101173.47;6226453;28;20056;-74
2023/06/17 12:50:10;;;;;;;8.82;5.20;;;;;;;24.16;80.59;101165.56;6228307;28;20053;-75
2023/06/17 12:53:11;;;;;;;8.45;4.70;;;;;;;24.21;80.14;101161.41;6228421;28;20060;-75
2023/06/17 12:56:12;;;;;;;9.68;5.05;;;;;;;24.22;77.72;101154.19;6226048;28;20056;-74
2023/06/17 12:59:14;;;;;;;8.80;4.80;;;;;;;24.32;78.37;101159.44;6229057;28;20053;-75
2023/06/17 13:02:16;;;;;;;9.80;5.05;;;;;;;24.42;79.41;101144.91;6225711;28;20053;-74
2023/06/17 13:05:19;;;;;;;6.80;4.63;;;;;;;24.66;76.83;101149.50;6218334;28;20042;-74
2023/06/17 13:08:20;;;;;;;8.98;4.05;;;;;;;24.57;75.27;101149.66;6226723;28;20054;-74
2023/06/17 13:11:22;;;;;;;10.38;5.00;;;;;;;24.67;75.65;101147.69;6226999;28;20465;-74
2023/06/17 13:14:23;;;;;;;10.27;4.15;;;;;;;25.02;71.57;101146.56;6228584;28;20045;-75
2023/06/17 13:17:25;;;;;;;7.60;4.70;;;;;;;25.02;70.22;101143.88;6227615;28;20061;-74
2023/06/17 13:20:27;;;;;;;7.68;4.50;;;;;;;25.07;70.83;101138.81;6227548;28;20060;-75
2023/06/17 13:23:29;;;;;;;8.57;4.20;;;;;;;25.12;71.39;101135.66;6228446;28;20049;-74
2023/06/17 13:26:32;;;;;;;6.15;4.20;;;;;;;25.27;70.94;101134.00;6228653;28;20050;-74
2023/06/17 13:29:33;;;;;;;6.25;4.03;;;;;;;25.15;68.24;101128.09;6228385;28;20061;-74
2023/06/17 13:32:34;;;;;;;5.47;3.90;;;;;;;25.35;67.13;101133.19;6227748;28;20057;-75
2023/06/17 13:35:37;;;;;;;7.63;4.22;;;;;;;25.73;66.30;101127.06;6228352;28;20057;-74
2023/06/17 13:38:38;;;;;;;7.13;3.88;;;;;;;25.80;67.68;101114.63;6228143;28;20072;-75
2023/06/17 13:41:40;;;;;;;4.60;3.35;;;;;;;25.92;64.61;101111.56;6227581;28;20065;-75
2023/06/17 13:44:44;;;;;;;5.57;3.13;;;;;;;25.96;66.42;101116.41;6227633;28;20073;-75
2023/06/17 13:47:46;;;;;;;7.05;3.63;;;;;;;25.99;63.50;101120.63;6227790;28;20127;-74
2023/06/17 13:50:49;;;;;;;5.10;3.33;;;;;;;25.89;63.78;101115.44;6227132;28;20046;-74
2023/06/17 13:53:50;;;;;;;5.10;3.40;;;;;;;25.61;64.13;101114.13;6227881;28;20061;-74